Terminal Aerodrome Forecast
Issued by NWS

Home | Current Version | Previous Version | Graphics & Text | Print | Product List | Glossary On
Versions: 1 2 3 4 5 6 7 8 9 10 11 12 13 14 15 16 17 18 19 20 21
000
FTUS43 KGRB 221522 AAB
TAFMTW
TAF AMD
KMTW 221522Z 2215/2312 09004KT P6SM OVC016
     FM221630 08005KT P6SM SCT016 OVC025
     FM221800 08006KT P6SM BKN035
     FM222000 08007KT P6SM BKN040
     FM230100 VRB03KT P6SM BKN050 PROB30 2303/2307 5SM -TSRA
      BKN025CB
     FM230700 23004KT 5SM BR VCSH BKN030
     FM231000 25005KT 4SM BR SCT008 BKN025=

USA.gov is the U.S. government's official web portal to all federal, state and local government web resources and services.